• °C
  • Pobieranie danych...
wx


SEKCJA WYDRUKÓW, pokaż »

METAR EPBY 310230Z VRB01KT CAVOK 12/09 Q1006=

METAR EPGD 310230Z VRB01KT CAVOK 13/10 Q1005 =

METAR EPKK 310230Z 05003KT CAVOK 15/15 Q1008 =

METAR EPKT 310230Z VRB01KT CAVOK 17/14 Q1008 =

METAR EPLB 310230Z 07001KT CAVOK 14/13 Q1008 =

METAR EPLL 310230Z 07001KT CAVOK 14/13 Q1007 =

METAR EPMO 310230Z VRB02KT CAVOK 15/13 Q1007 =

METAR EPPO 310230Z 14004KT CAVOK 16/12 Q1006 =

METAR EPRA 310230Z NIL=

METAR EPRZ 310230Z 20002KT CAVOK 17/17 Q1009 =

METAR EPSC 310230Z 14007KT CAVOK 16/11 Q1004 =

METAR EPSY 310230Z VRB01KT CAVOK 09/09 Q1007=

METAR EPWA 310230Z 14003KT CAVOK 15/13 Q1008 NOSIG=

METAR EPWR 310230Z VRB02KT CAVOK 15/13 Q1006 =

METAR EPZG 310230Z NIL=



Serwisy IMGW-PIB